Time;durP1;ratioP1;P1;durP2;ratioP2;P2;SDS_P1;SDS_P2;PMS_P1;PMS_P2;Temp;Humidity;BMP_temperature;BMP_pressure;BME280_temperature;BME280_humidity;BME280_pressure;Samples;Min_cycle;Max_cycle;Signal;HPM_P1;HPM_P2
2023/01/02 00:00:13;;;;;;;5.25;4.00;;;;;;;10.33;77.63;98408.84;4979806;28;20042;-84
2023/01/02 00:02:38;;;;;;;6.07;3.92;;;;;;;10.32;77.76;98418.50;4979596;28;20568;-84
2023/01/02 00:05:04;;;;;;;7.22;4.80;;;;;;;10.32;77.50;98418.50;4981497;28;20076;-84
2023/01/02 00:07:30;;;;;;;6.85;4.22;;;;;;;10.32;77.57;98408.03;4977856;28;20061;-84
2023/01/02 00:09:55;;;;;;;6.47;4.05;;;;;;;10.28;77.70;98401.53;4980416;28;20065;-84
2023/01/02 00:12:21;;;;;;;6.78;4.13;;;;;;;10.27;77.41;98396.50;4979536;28;20078;-85
2023/01/02 00:14:46;;;;;;;6.72;3.75;;;;;;;10.31;76.95;98389.84;4979385;28;20051;-84
2023/01/02 00:17:12;;;;;;;7.15;4.40;;;;;;;10.34;76.64;98389.47;4979328;28;20035;-84
2023/01/02 00:19:37;;;;;;;6.20;3.80;;;;;;;10.40;76.49;98389.53;4977977;28;20073;-85
2023/01/02 00:22:03;;;;;;;4.95;3.30;;;;;;;10.42;75.99;98392.75;4980767;28;20039;-84
2023/01/02 00:24:28;;;;;;;5.85;3.45;;;;;;;10.50;75.90;98383.16;4983129;28;20117;-84
2023/01/02 00:26:54;;;;;;;6.65;3.63;;;;;;;10.50;75.88;98377.91;4982289;28;20031;-85
2023/01/02 00:29:19;;;;;;;4.75;3.17;;;;;;;10.56;75.16;98382.38;4983096;28;20042;-84
2023/01/02 00:31:44;;;;;;;5.30;3.70;;;;;;;10.62;75.08;98381.59;4980494;28;20069;-85
2023/01/02 00:34:10;;;;;;;6.90;3.50;;;;;;;10.69;75.17;98374.59;4979697;28;20042;-85
2023/01/02 00:36:35;;;;;;;5.70;3.70;;;;;;;10.71;74.81;98364.69;4981304;28;20444;-85
2023/01/02 00:39:01;;;;;;;5.97;3.60;;;;;;;10.76;74.68;98364.13;4981638;28;20438;-85
2023/01/02 00:41:26;;;;;;;6.57;3.65;;;;;;;10.78;74.31;98364.72;4982251;28;20062;-84
2023/01/02 00:43:52;;;;;;;6.03;3.55;;;;;;;10.78;74.72;98349.78;4980824;28;20041;-84
2023/01/02 00:46:17;;;;;;;4.85;3.58;;;;;;;10.80;74.64;98352.25;4980758;28;20045;-84
2023/01/02 00:48:43;;;;;;;4.07;3.10;;;;;;;10.81;73.54;98348.63;4984435;28;20110;-85
2023/01/02 00:51:09;;;;;;;5.65;3.63;;;;;;;10.87;74.01;98353.88;4985577;28;20034;-84
2023/01/02 00:53:34;;;;;;;5.00;3.60;;;;;;;10.91;73.68;98354.28;4985387;28;20039;-84
2023/01/02 00:55:59;;;;;;;5.88;3.40;;;;;;;10.88;73.41;98344.19;4984588;28;20482;-84
2023/01/02 00:58:25;;;;;;;7.88;3.83;;;;;;;10.91;73.41;98352.47;4986090;28;20065;-84
2023/01/02 01:00:51;;;;;;;5.00;3.53;;;;;;;10.93;73.26;98355.72;4982145;28;20042;-84
2023/01/02 01:03:17;;;;;;;6.80;3.30;;;;;;;10.94;73.75;98353.91;4980269;28;20094;-84
2023/01/02 01:05:42;;;;;;;5.70;3.33;;;;;;;10.95;73.73;98353.72;4979792;28;20117;-84
2023/01/02 01:08:08;;;;;;;5.03;3.97;;;;;;;10.95;73.46;98340.59;4983942;28;20114;-84
2023/01/02 01:10:36;;;;;;;5.13;3.47;;;;;;;10.91;73.64;98334.09;4981787;28;20561;-84
2023/01/02 01:13:03;;;;;;;4.75;3.38;;;;;;;10.97;73.08;98338.59;4984062;28;20038;-85
2023/01/02 01:15:28;;;;;;;4.63;3.33;;;;;;;11.01;72.84;98348.69;4981130;28;20038;-84
2023/01/02 01:17:54;;;;;;;6.07;3.67;;;;;;;11.03;73.02;98349.28;4981819;28;20117;-84
2023/01/02 01:20:19;;;;;;;5.30;3.47;;;;;;;11.03;72.84;98359.78;4988436;28;20523;-84
2023/01/02 01:22:45;;;;;;;3.88;3.28;;;;;;;10.96;73.34;98350.06;4980965;28;20038;-84
2023/01/02 01:25:11;;;;;;;4.38;3.45;;;;;;;10.98;73.16;98355.97;4981273;28;20034;-84
2023/01/02 01:27:37;;;;;;;7.63;3.95;;;;;;;11.01;73.11;98348.69;4980490;28;20038;-84
2023/01/02 01:30:05;;;;;;;7.60;4.13;;;;;;;11.05;73.10;98361.22;4980438;28;20105;-85
2023/01/02 01:32:30;;;;;;;5.28;3.53;;;;;;;11.12;73.21;98361.25;4978947;28;20038;-84
2023/01/02 01:34:56;;;;;;;5.82;3.88;;;;;;;11.12;73.01;98366.50;4981039;28;20368;-84
2023/01/02 01:37:21;;;;;;;7.05;3.63;;;;;;;11.16;73.09;98362.50;4979416;28;20125;-84
2023/01/02 01:39:47;;;;;;;5.53;3.97;;;;;;;11.18;73.41;98358.66;4978986;28;20035;-84
2023/01/02 01:42:14;;;;;;;6.03;4.13;;;;;;;11.13;73.00;98349.75;4979148;28;20062;-85
2023/01/02 01:44:51;;;;;;;5.07;3.38;;;;;;;11.13;73.20;98349.75;4982937;28;20061;-84
2023/01/02 01:47:34;;;;;;;5.25;3.65;;;;;;;11.09;73.15;98343.25;4981473;28;20053;-84
2023/01/02 01:50:08;;;;;;;4.90;3.30;;;;;;;11.06;73.76;98346.28;4981906;28;20430;-84
2023/01/02 01:52:45;;;;;;;5.10;3.25;;;;;;;11.02;73.30;98352.94;4983483;28;20034;-84
2023/01/02 01:55:22;;;;;;;4.30;3.50;;;;;;;11.01;73.52;98352.13;4982090;28;20066;-84
2023/01/02 01:58:16;;;;;;;6.43;3.83;;;;;;;10.97;73.65;98354.34;4982674;28;20601;-84
2023/01/02 02:00:42;;;;;;;6.63;4.07;;;;;;;10.94;74.00;98344.22;5001004;28;20500;-84
2023/01/02 02:03:17;;;;;;;4.95;4.05;;;;;;;10.84;74.33;98337.72;4980270;28;20027;-84
2023/01/02 02:05:44;;;;;;;4.20;3.50;;;;;;;10.86;74.22;98336.53;4983219;28;20045;-84
2023/01/02 02:08:18;;;;;;;8.38;3.95;;;;;;;10.81;74.28;98338.13;4980010;28;20042;-84
2023/01/02 02:10:44;;;;;;;6.70;3.97;;;;;;;10.72;74.81;98335.63;4978745;28;20065;-84
2023/01/02 02:13:10;;;;;;;5.13;3.83;;;;;;;10.66;74.90;98340.84;4978951;28;20038;-84
2023/01/02 02:16:17;;;;;;;5.53;3.97;;;;;;;10.55;74.90;98329.09;4981349;28;20617;-84
2023/01/02 02:19:17;;;;;;;6.20;3.90;;;;;;;10.48;75.36;98323.00;4979246;28;20088;-84
2023/01/02 02:22:27;;;;;;;6.65;3.83;;;;;;;10.41;75.38;98317.72;4987692;28;20034;-84
2023/01/02 02:25:32;;;;;;;5.97;3.75;;;;;;;10.39;75.11;98311.06;4981526;28;20034;-84
2023/01/02 02:28:15;;;;;;;5.82;3.55;;;;;;;10.40;75.16;98317.91;4979212;28;20038;-84
2023/01/02 02:30:56;;;;;;;6.97;3.40;;;;;;;10.38;75.40;98310.25;4981282;28;20045;-84
2023/01/02 02:33:39;;;;;;;6.70;3.72;;;;;;;10.38;75.04;98314.69;4977650;28;20034;-84
2023/01/02 02:36:17;;;;;;;4.75;3.78;;;;;;;10.36;75.11;98314.88;4977008;28;20042;-84
2023/01/02 02:39:11;;;;;;;4.35;3.35;;;;;;;10.36;75.20;98309.63;4978056;28;20049;-84
2023/01/02 02:42:03;;;;;;;6.07;3.70;;;;;;;10.39;75.21;98311.06;4987682;28;20513;-84
2023/01/02 02:44:45;;;;;;;7.18;3.40;;;;;;;10.43;74.47;98304.41;4981240;28;20045;-84
2023/01/02 02:47:34;;;;;;;4.05;3.47;;;;;;;10.41;74.64;98307.22;4976775;28;20050;-84
2023/01/02 02:50:19;;;;;;;6.72;3.47;;;;;;;10.45;74.11;98295.38;4974972;28;20045;-84
2023/01/02 02:53:01;;;;;;;5.45;3.20;;;;;;;10.39;74.17;98282.22;4981540;28;20045;-84
2023/01/02 02:55:51;;;;;;;4.90;3.70;;;;;;;10.50;74.03;98288.75;4982048;28;21577;-84
2023/01/02 02:58:20;;;;;;;5.25;3.17;;;;;;;10.52;73.83;98284.09;4977753;28;20073;-84
2023/01/02 03:00:45;;;;;;;6.65;3.75;;;;;;;10.54;73.69;98282.09;4978691;28;20033;-84
2023/01/02 03:03:21;;;;;;;8.23;3.40;;;;;;;10.45;73.47;98274.38;4979722;28;20490;-84
2023/01/02 03:06:17;;;;;;;7.18;3.90;;;;;;;10.58;73.61;98285.94;4978578;28;20610;-84
2023/01/02 03:09:07;;;;;;;5.88;3.60;;;;;;;10.61;73.51;98280.28;4977742;28;20052;-84
2023/01/02 03:12:01;;;;;;;5.03;3.20;;;;;;;10.64;73.54;98278.09;4978934;28;20038;-85
2023/01/02 03:14:55;;;;;;;5.47;3.30;;;;;;;10.65;73.58;98276.28;4980732;28;20109;-85
2023/01/02 03:18:06;;;;;;;5.20;3.67;;;;;;;10.64;73.49;98269.44;4977879;28;20042;-84
2023/01/02 03:20:43;;;;;;;6.63;3.42;;;;;;;10.66;73.46;98268.22;4994729;28;20121;-84
2023/01/02 03:23:20;;;;;;;4.38;3.17;;;;;;;10.67;72.97;98269.03;4981205;28;20038;-84
2023/01/02 03:25:47;;;;;;;5.50;3.00;;;;;;;10.63;73.14;98259.94;4978919;28;20383;-84
2023/01/02 03:28:18;;;;;;;4.93;3.17;;;;;;;10.60;73.30;98248.00;4977848;28;20034;-84
2023/01/02 03:30:51;;;;;;;5.20;3.45;;;;;;;10.60;73.07;98253.25;4976423;28;20061;-84
2023/01/02 03:33:26;;;;;;;5.65;3.97;;;;;;;10.61;73.47;98262.75;4976561;28;20039;-84
2023/01/02 03:36:06;;;;;;;7.07;3.28;;;;;;;10.56;73.35;98256.50;4986168;28;20113;-84
2023/01/02 03:38:42;;;;;;;4.53;3.47;;;;;;;10.52;73.33;98255.25;4977583;28;20490;-84
2023/01/02 03:41:23;;;;;;;7.15;3.42;;;;;;;10.55;73.11;98263.53;4979270;28;20050;-84
2023/01/02 03:43:52;;;;;;;4.93;3.58;;;;;;;10.54;73.33;98264.53;4981723;28;20038;-84
2023/01/02 03:46:24;;;;;;;5.47;3.83;;;;;;;10.53;73.06;98257.66;4978567;28;20433;-84
2023/01/02 03:48:58;;;;;;;5.13;3.40;;;;;;;10.59;73.00;98259.50;4980621;28;20446;-84
2023/01/02 03:51:24;;;;;;;5.22;3.22;;;;;;;10.64;72.97;98256.31;4976119;28;20030;-84
2023/01/02 03:53:51;;;;;;;4.90;3.50;;;;;;;10.59;72.88;98256.09;4979033;28;20089;-84
2023/01/02 03:56:41;;;;;;;4.95;3.00;;;;;;;10.62;72.76;98263.56;4982489;28;20607;-84
2023/01/02 03:59:45;;;;;;;5.95;3.70;;;;;;;10.59;72.98;98251.66;4981581;28;20517;-84
2023/01/02 04:02:43;;;;;;;5.45;3.45;;;;;;;10.59;72.92;98245.59;4984968;28;20132;-84
2023/01/02 04:05:19;;;;;;;4.22;3.45;;;;;;;10.59;72.89;98250.84;4983147;28;20042;-84
2023/01/02 04:08:01;;;;;;;4.60;3.25;;;;;;;10.55;73.23;98262.72;4980933;28;20042;-84
2023/01/02 04:10:29;;;;;;;6.00;3.60;;;;;;;10.51;73.04;98258.88;4982783;28;20422;-84
2023/01/02 04:13:03;;;;;;;4.20;3.08;;;;;;;10.49;73.35;98256.44;4983780;28;20030;-84
2023/01/02 04:15:35;;;;;;;4.07;3.10;;;;;;;10.49;73.20;98264.31;4984402;28;20068;-84
2023/01/02 04:18:23;;;;;;;5.00;3.25;;;;;;;10.48;72.95;98259.25;4982289;28;20030;-84
2023/01/02 04:20:56;;;;;;;5.05;3.08;;;;;;;10.43;73.09;98244.94;4981821;28;20049;-84
2023/01/02 04:23:34;;;;;;;4.22;3.20;;;;;;;10.48;72.84;98265.31;4982389;28;20038;-84
2023/01/02 04:26:14;;;;;;;4.97;3.50;;;;;;;10.50;72.84;98262.50;4982795;28;20050;-84
2023/01/02 04:28:40;;;;;;;5.45;3.65;;;;;;;10.47;73.01;98268.13;4981201;28;20046;-84
2023/01/02 04:31:15;;;;;;;4.68;3.15;;;;;;;10.48;73.00;98264.50;4982072;28;20374;-84
2023/01/02 04:33:48;;;;;;;5.32;3.30;;;;;;;10.50;72.76;98267.75;4981584;28;20031;-84
2023/01/02 04:36:15;;;;;;;5.22;3.25;;;;;;;10.47;72.97;98273.38;4980318;28;20061;-84
2023/01/02 04:38:42;;;;;;;4.78;3.20;;;;;;;10.49;73.08;98272.16;4979824;28;20415;-84
2023/01/02 04:41:14;;;;;;;6.32;3.30;;;;;;;10.42;72.91;98277.38;4983729;28;20514;-84
2023/01/02 04:43:39;;;;;;;4.63;3.50;;;;;;;10.43;73.50;98273.78;4985285;28;20045;-84
2023/01/02 04:46:05;;;;;;;4.20;3.05;;;;;;;10.42;72.93;98277.38;4981352;28;20030;-84
2023/01/02 04:48:30;;;;;;;4.72;2.92;;;;;;;10.47;73.05;98276.00;4982200;28;20052;-84
2023/01/02 04:50:56;;;;;;;6.05;3.72;;;;;;;10.51;72.96;98270.19;4984817;28;20042;-84
2023/01/02 04:53:21;;;;;;;6.38;3.70;;;;;;;10.51;72.92;98272.00;4981963;28;20046;-84
2023/01/02 04:55:47;;;;;;;4.60;3.33;;;;;;;10.45;72.98;98270.97;4984845;28;20044;-84
2023/01/02 04:58:12;;;;;;;4.32;3.45;;;;;;;10.52;73.20;98268.38;4980243;28;20027;-84
2023/01/02 05:00:38;;;;;;;6.75;3.45;;;;;;;10.52;72.92;98271.00;4981820;28;20060;-84
2023/01/02 05:03:04;;;;;;;4.55;3.47;;;;;;;10.52;73.12;98271.00;4983427;28;20579;-84
2023/01/02 05:05:30;;;;;;;6.38;3.50;;;;;;;10.53;73.33;98272.59;4981078;28;20042;-84
2023/01/02 05:07:59;;;;;;;5.53;3.58;;;;;;;10.55;72.95;98270.59;4980973;28;20158;-84
2023/01/02 05:10:24;;;;;;;4.50;3.53;;;;;;;10.52;73.11;98271.00;4982670;28;20030;-84
2023/01/02 05:12:50;;;;;;;4.75;3.47;;;;;;;10.50;73.15;98265.13;4980323;28;20049;-84
2023/01/02 05:15:16;;;;;;;5.13;3.40;;;;;;;10.52;73.25;98269.16;4983779;28;20043;-84
2023/01/02 05:17:41;;;;;;;4.50;3.40;;;;;;;10.53;73.09;98267.34;4980436;28;20068;-84
2023/01/02 05:20:12;;;;;;;6.38;3.22;;;;;;;10.50;73.15;98267.75;4980839;28;20502;-84
2023/01/02 05:25:25;;;;;;;9.07;3.85;;;;;;;10.48;73.36;98270.56;4980954;28;20034;-84
2023/01/02 05:27:53;;;;;;;5.05;3.67;;;;;;;10.49;73.45;98271.38;4979564;28;20071;-84
2023/01/02 05:30:18;;;;;;;4.30;3.30;;;;;;;10.47;73.19;98274.19;4979698;28;20038;-85
2023/01/02 05:32:44;;;;;;;5.68;3.30;;;;;;;10.46;73.39;98269.94;4980297;28;20053;-84
2023/01/02 05:35:09;;;;;;;4.22;3.33;;;;;;;10.47;73.35;98279.44;4979690;28;20550;-84
2023/01/02 05:37:35;;;;;;;5.40;3.55;;;;;;;10.41;73.69;98267.91;4978650;28;20039;-84
2023/01/02 05:40:00;;;;;;;5.68;3.60;;;;;;;10.42;73.97;98266.91;4983389;28;20039;-84
2023/01/02 05:42:26;;;;;;;6.85;3.38;;;;;;;10.40;73.73;98274.16;4982179;28;20145;-84
2023/01/02 05:44:51;;;;;;;6.07;3.78;;;;;;;10.34;73.54;98271.50;4984561;28;20093;-84
2023/01/02 05:47:17;;;;;;;5.55;3.53;;;;;;;10.35;73.97;98280.97;4980408;28;20043;-85
2023/01/02 05:49:42;;;;;;;7.38;4.00;;;;;;;10.36;73.88;98278.16;4982118;28;20374;-84
2023/01/02 05:52:08;;;;;;;4.88;3.45;;;;;;;10.31;73.75;98272.69;4982452;28;20045;-84
2023/01/02 05:54:33;;;;;;;5.90;3.80;;;;;;;10.36;73.65;98286.03;4980708;28;20489;-84
2023/01/02 05:56:59;;;;;;;5.57;3.17;;;;;;;10.29;73.61;98279.13;4980252;28;20034;-84
2023/01/02 05:59:25;;;;;;;5.55;3.58;;;;;;;10.32;73.37;98287.44;4980605;28;20058;-84
2023/01/02 06:01:50;;;;;;;5.82;3.83;;;;;;;10.34;73.54;98282.00;4979688;28;20481;-84
2023/01/02 06:04:16;;;;;;;6.18;3.60;;;;;;;10.33;73.60;98283.00;4979829;28;20101;-84
2023/01/02 06:06:41;;;;;;;6.47;3.75;;;;;;;10.21;73.54;98268.78;4979096;28;20038;-84
2023/01/02 06:09:12;;;;;;;8.25;4.20;;;;;;;10.27;73.68;98284.56;4981926;28;20046;-84
2023/01/02 06:11:37;;;;;;;4.93;3.13;;;;;;;10.29;73.97;98277.31;4979205;28;20043;-84
2023/01/02 06:14:03;;;;;;;5.07;3.50;;;;;;;10.24;73.77;98269.22;4979729;28;20438;-84
2023/01/02 06:16:28;;;;;;;7.10;3.55;;;;;;;10.26;73.98;98272.47;4979665;28;20175;-84
2023/01/02 06:18:54;;;;;;;7.18;3.78;;;;;;;10.29;73.81;98279.94;4971938;28;20383;-84
2023/01/02 06:21:21;;;;;;;5.35;3.70;;;;;;;10.24;73.89;98284.13;4977002;28;20038;-84
2023/01/02 06:23:48;;;;;;;5.63;3.72;;;;;;;10.28;73.60;98286.19;4977175;28;20034;-84
2023/01/02 06:26:17;;;;;;;6.03;3.92;;;;;;;10.33;73.60;98286.44;4980163;28;20050;-84
2023/01/02 06:28:45;;;;;;;5.25;3.65;;;;;;;10.36;73.90;98298.31;4976831;28;20058;-84
2023/01/02 06:31:14;;;;;;;7.35;3.42;;;;;;;10.35;73.29;98297.53;4980498;28;20030;-84
2023/01/02 06:33:40;;;;;;;5.80;3.25;;;;;;;10.31;73.24;98288.41;4975007;28;20058;-84
2023/01/02 06:36:27;;;;;;;6.35;3.72;;;;;;;10.33;73.28;98294.28;4978775;28;20058;-84
2023/01/02 06:38:53;;;;;;;5.30;3.67;;;;;;;10.33;73.17;98291.66;4981122;28;20038;-84
2023/01/02 06:41:18;;;;;;;4.72;3.13;;;;;;;10.36;72.66;98299.13;4977475;28;20045;-84
2023/01/02 06:43:49;;;;;;;3.70;2.97;;;;;;;10.36;73.28;98298.31;4979835;28;20486;-84
2023/01/02 06:46:17;;;;;;;;;;;;;;;10.35;72.94;98308.00;4976604;28;20042;-84
2023/01/02 06:48:44;;;;;;;5.15;3.35;;;;;;;10.36;73.08;98314.06;4980559;28;19920;-84
2023/01/02 06:51:19;;;;;;;6.82;4.05;;;;;;;10.37;73.28;98310.44;4978313;28;20554;-84
2023/01/02 06:53:45;;;;;;;5.80;3.35;;;;;;;10.32;73.12;98297.13;4981209;28;20038;-84
2023/01/02 06:56:14;;;;;;;5.30;3.63;;;;;;;10.39;73.20;98308.44;4980085;28;20038;-84
2023/01/02 06:58:39;;;;;;;5.72;4.03;;;;;;;10.41;72.90;98307.22;4975016;28;20506;-84
2023/01/02 07:01:14;;;;;;;5.82;3.78;;;;;;;10.42;73.04;98308.03;4981339;28;20096;-84
2023/01/02 07:03:40;;;;;;;5.15;3.80;;;;;;;10.36;73.24;98304.38;4984223;28;20031;-84
2023/01/02 07:06:10;;;;;;;5.80;3.47;;;;;;;10.39;73.09;98314.50;4977097;28;20041;-84
2023/01/02 07:08:37;;;;;;;7.40;3.63;;;;;;;10.42;73.28;98308.03;4976069;28;20030;-84
2023/01/02 07:11:12;;;;;;;5.60;3.60;;;;;;;10.41;73.17;98309.84;4980366;28;20102;-85
2023/01/02 07:13:38;;;;;;;6.13;3.75;;;;;;;10.37;73.38;98306.00;4978572;28;20046;-84
2023/01/02 07:16:08;;;;;;;5.75;3.58;;;;;;;10.38;73.19;98317.31;4977147;28;20534;-85
2023/01/02 07:18:35;;;;;;;4.88;3.33;;;;;;;10.37;73.09;98305.19;4978699;28;20034;-85
2023/01/02 07:21:00;;;;;;;30.10;13.25;;;;;;;10.43;73.00;98307.88;4973759;28;20030;-85
2023/01/02 07:23:26;;;;;;;10.27;6.38;;;;;;;10.38;73.01;98312.88;4977727;28;20026;-85
2023/01/02 07:26:00;;;;;;;7.32;4.47;;;;;;;10.39;73.09;98314.50;4978063;28;20551;-85
2023/01/02 07:28:27;;;;;;;5.78;4.07;;;;;;;10.39;72.74;98319.75;4978451;28;20046;-85
2023/01/02 07:30:59;;;;;;;7.85;4.90;;;;;;;10.41;73.06;98328.22;4982106;28;20499;-85
2023/01/02 07:33:27;;;;;;;5.53;3.85;;;;;;;10.40;72.82;98310.06;4975112;28;20046;-85
2023/01/02 07:36:15;;;;;;;6.07;3.90;;;;;;;10.42;72.76;98315.91;4979119;28;20352;-85
2023/01/02 07:38:41;;;;;;;7.07;3.90;;;;;;;10.51;72.43;98322.63;4980897;28;20043;-85
2023/01/02 07:41:19;;;;;;;9.73;5.57;;;;;;;10.53;72.59;98325.06;4977168;28;20125;-85
2023/01/02 07:43:46;;;;;;;5.55;4.13;;;;;;;10.50;72.77;98320.22;4979379;28;20073;-85
2023/01/02 07:46:14;;;;;;;6.40;4.07;;;;;;;10.50;72.45;98323.63;4972657;28;20069;-85
2023/01/02 07:48:40;;;;;;;5.15;3.60;;;;;;;10.49;72.50;98323.81;4980501;28;20035;-84
2023/01/02 07:51:08;;;;;;;6.55;4.15;;;;;;;10.46;72.38;98330.25;4975449;28;20113;-85
2023/01/02 07:53:34;;;;;;;6.72;3.47;;;;;;;10.45;72.81;98333.91;4977310;28;20049;-85
2023/01/02 07:56:01;;;;;;;6.63;3.75;;;;;;;10.48;72.24;98337.94;4976418;28;20054;-85
2023/01/02 07:58:27;;;;;;;6.03;4.10;;;;;;;10.50;72.71;98341.19;4978895;28;20479;-85
2023/01/02 08:00:54;;;;;;;6.32;3.75;;;;;;;10.50;72.45;98339.38;4974871;28;20065;-85
2023/01/02 08:03:21;;;;;;;5.68;3.72;;;;;;;10.52;72.91;98344.41;4977368;28;20042;-85
2023/01/02 08:05:46;;;;;;;6.13;3.80;;;;;;;10.59;72.62;98348.69;4977798;28;20482;-84
2023/01/02 08:08:12;;;;;;;4.32;3.22;;;;;;;10.65;72.15;98352.34;4974734;28;20065;-85
2023/01/02 08:10:38;;;;;;;4.78;3.40;;;;;;;10.60;72.16;98341.63;4976186;28;20386;-85
2023/01/02 08:13:05;;;;;;;6.53;4.03;;;;;;;10.62;72.36;98350.13;4975018;28;20524;-84
2023/01/02 08:15:32;;;;;;;4.85;3.60;;;;;;;10.64;72.47;98358.59;4973641;28;20034;-85
2023/01/02 08:17:58;;;;;;;4.88;3.47;;;;;;;10.64;72.07;98348.91;4974571;28;20121;-85
2023/01/02 08:20:25;;;;;;;5.28;3.60;;;;;;;10.61;72.75;98344.03;4974205;28;20039;-85
2023/01/02 08:22:51;;;;;;;7.20;4.03;;;;;;;10.70;72.18;98358.66;4975420;28;20077;-85
2023/01/02 08:25:17;;;;;;;6.03;4.32;;;;;;;10.73;72.00;98354.81;4975562;28;20125;-85
2023/01/02 08:27:43;;;;;;;6.25;4.10;;;;;;;10.74;72.24;98356.44;4977355;28;20422;-85
2023/01/02 08:30:10;;;;;;;7.13;3.65;;;;;;;10.76;71.88;98362.31;4976753;28;20035;-85
2023/01/02 08:32:37;;;;;;;6.55;4.05;;;;;;;10.77;72.11;98358.66;4977186;28;20038;-84
2023/01/02 08:35:06;;;;;;;5.78;3.85;;;;;;;10.82;72.01;98365.97;4980859;28;20035;-85
2023/01/02 08:37:32;;;;;;;7.22;4.25;;;;;;;10.77;71.70;98356.06;4975800;28;20038;-85
2023/01/02 08:39:57;;;;;;;6.28;3.92;;;;;;;10.81;71.73;98364.34;4971922;28;20038;-85
2023/01/02 08:42:23;;;;;;;12.25;7.43;;;;;;;10.90;71.84;98368.41;4976016;28;20061;-85
2023/01/02 08:44:49;;;;;;;8.48;5.53;;;;;;;10.91;71.41;98370.03;4978566;28;20157;-85
2023/01/02 08:47:14;;;;;;;7.30;5.55;;;;;;;10.94;71.84;98370.47;4978280;28;20371;-84
2023/01/02 08:49:40;;;;;;;4.57;3.50;;;;;;;10.93;71.52;98368.03;4981593;28;20039;-84
2023/01/02 08:52:05;;;;;;;5.43;3.90;;;;;;;10.98;71.57;98379.56;4980812;28;20088;-84
2023/01/02 08:54:31;;;;;;;6.72;3.67;;;;;;;11.03;71.11;98378.16;4981307;28;20039;-84
2023/01/02 08:56:57;;;;;;;6.03;4.03;;;;;;;11.05;70.21;98379.59;4977265;28;20018;-84
2023/01/02 08:59:24;;;;;;;5.55;3.85;;;;;;;11.16;71.24;98386.13;4980402;28;20533;-84
2023/01/02 09:01:51;;;;;;;4.97;3.47;;;;;;;11.17;70.20;98379.84;4979899;28;20042;-84
2023/01/02 09:04:17;;;;;;;8.48;4.15;;;;;;;11.25;70.18;98377.84;4979374;28;20043;-88
2023/01/02 09:06:47;;;;;;;5.57;3.80;;;;;;;11.29;69.87;98378.28;4962614;28;20046;-84
2023/01/02 09:09:15;;;;;;;6.13;4.00;;;;;;;11.30;69.79;98390.41;4980160;28;20479;-84
2023/01/02 09:11:49;;;;;;;5.40;4.07;;;;;;;11.40;70.14;98401.34;4979184;28;20030;-84
2023/01/02 09:14:16;;;;;;;8.43;4.97;;;;;;;11.40;69.86;98396.09;4979382;28;20030;-84
2023/01/02 09:16:41;;;;;;;5.20;4.03;;;;;;;11.40;69.85;98382.97;4976342;28;20085;-84
2023/01/02 09:19:07;;;;;;;7.18;4.45;;;;;;;11.44;69.66;98404.38;4977976;28;20682;-84
2023/01/02 09:21:33;;;;;;;7.32;3.92;;;;;;;11.50;69.32;98407.03;4978157;28;20030;-84
2023/01/02 09:23:58;;;;;;;5.60;3.70;;;;;;;11.55;69.16;98410.88;4978441;28;20045;-85
2023/01/02 09:26:24;;;;;;;6.32;3.90;;;;;;;11.62;68.71;98414.34;4979685;28;20045;-84
2023/01/02 09:28:50;;;;;;;6.55;3.80;;;;;;;11.69;69.26;98404.63;4977428;28;20109;-84
2023/01/02 09:31:19;;;;;;;4.82;3.40;;;;;;;11.71;68.30;98415.78;4974780;28;20116;-84
2023/01/02 09:33:46;;;;;;;7.22;3.67;;;;;;;11.78;68.06;98421.84;4981101;28;20034;-84
2023/01/02 09:36:16;;;;;;;6.50;3.50;;;;;;;11.82;68.43;98411.81;4981825;28;20085;-84
2023/01/02 09:38:42;;;;;;;6.47;3.60;;;;;;;11.83;67.89;98419.47;4976235;28;20431;-84
2023/01/02 09:41:25;;;;;;;6.55;4.10;;;;;;;11.82;68.51;98409.97;4982317;28;20053;-84
2023/01/02 09:43:58;;;;;;;5.65;4.03;;;;;;;11.92;68.45;98420.09;4979051;28;20038;-84
2023/01/02 09:46:37;;;;;;;7.85;5.20;;;;;;;11.98;68.24;98420.09;4978967;28;20512;-84
2023/01/02 09:49:03;;;;;;;5.82;3.95;;;;;;;12.00;67.95;98401.50;4979940;28;20080;-84
2023/01/02 09:51:33;;;;;;;6.30;3.42;;;;;;;12.08;67.32;98408.38;4977428;28;20039;-84
2023/01/02 09:54:00;;;;;;;5.70;3.58;;;;;;;12.10;66.62;98401.91;4978414;28;20045;-84
2023/01/02 09:56:41;;;;;;;8.57;4.05;;;;;;;12.17;66.75;98400.06;4976282;28;20026;-84
2023/01/02 09:59:25;;;;;;;6.85;4.10;;;;;;;12.22;67.03;98404.72;4980091;28;20530;-84
2023/01/02 10:02:38;;;;;;;8.57;4.10;;;;;;;12.26;67.14;98395.44;4980334;28;20142;-84
2023/01/02 10:05:35;;;;;;;5.13;3.55;;;;;;;12.34;66.03;98392.59;4988508;28;20063;-84
2023/01/02 10:08:03;;;;;;;8.60;5.63;;;;;;;12.52;65.97;98411.19;4977053;28;20038;-90
2023/01/02 10:10:36;;;;;;;8.00;4.68;;;;;;;12.56;65.67;98407.16;4979399;28;20536;-84
2023/01/02 10:13:20;;;;;;;7.03;4.10;;;;;;;12.61;65.32;98397.84;4977229;28;20066;-83
2023/01/02 10:15:51;;;;;;;5.75;3.60;;;;;;;12.76;65.05;98401.03;4976331;28;20093;-84
2023/01/02 10:18:25;;;;;;;6.05;3.92;;;;;;;12.89;64.66;98390.47;4974031;28;20057;-84
2023/01/02 10:21:13;;;;;;;7.47;3.35;;;;;;;13.06;63.81;98396.09;4980955;28;20081;-84
2023/01/02 10:23:45;;;;;;;6.47;3.20;;;;;;;13.03;63.65;98381.53;4977414;28;20118;-85
2023/01/02 10:26:22;;;;;;;5.35;3.65;;;;;;;13.05;64.27;98389.22;4978316;28;20070;-84
2023/01/02 10:29:10;;;;;;;5.93;3.60;;;;;;;13.07;64.05;98403.81;4974989;28;20617;-84
2023/01/02 10:31:45;;;;;;;6.97;3.67;;;;;;;13.07;63.54;98406.44;4978110;28;20038;-83
2023/01/02 10:34:25;;;;;;;4.68;3.42;;;;;;;13.18;63.26;98404.16;4976743;28;20105;-83
2023/01/02 10:36:51;;;;;;;5.07;3.23;;;;;;;13.26;62.75;98407.41;4984431;28;20812;-84
2023/01/02 10:39:21;;;;;;;5.47;3.60;;;;;;;13.35;62.58;98402.69;4981231;28;20113;-84
2023/01/02 10:41:57;;;;;;;7.68;3.88;;;;;;;13.48;63.13;98405.28;4976348;28;20030;-84
2023/01/02 10:44:34;;;;;;;5.72;3.90;;;;;;;13.51;62.05;98407.50;4975845;28;20096;-85
2023/01/02 10:47:32;;;;;;;6.15;3.90;;;;;;;13.49;62.69;98406.06;4976848;28;20114;-83
2023/01/02 10:49:59;;;;;;;4.25;3.50;;;;;;;13.53;62.37;98418.63;4976070;28;20037;-84
2023/01/02 10:52:45;;;;;;;5.00;3.35;;;;;;;13.77;63.26;98418.91;4977787;28;20442;-84
2023/01/02 10:55:10;;;;;;;8.02;3.40;;;;;;;13.91;61.70;98420.44;4979255;28;20035;-83
2023/01/02 10:57:45;;;;;;;6.30;3.30;;;;;;;13.93;60.91;98413.94;4979072;28;20517;-82
2023/01/02 11:00:17;;;;;;;6.22;3.63;;;;;;;13.91;60.71;98413.34;4976059;28;20030;-83
2023/01/02 11:02:49;;;;;;;6.63;3.65;;;;;;;13.89;60.71;98422.47;4975573;28;20060;-83
2023/01/02 11:05:26;;;;;;;7.07;3.63;;;;;;;13.92;61.10;98411.53;4981514;28;20121;-82
2023/01/02 11:07:53;;;;;;;6.25;3.30;;;;;;;13.94;60.55;98412.09;4975322;28;20039;-82
2023/01/02 11:10:31;;;;;;;3.92;3.45;;;;;;;13.93;59.81;98403.41;4975520;28;20061;-82
2023/01/02 11:13:02;;;;;;;7.57;4.15;;;;;;;14.17;59.78;98412.34;4976648;28;20102;-82
2023/01/02 11:15:33;;;;;;;6.22;3.40;;;;;;;14.26;59.12;98418.16;4976321;28;20074;-82
2023/01/02 11:18:01;;;;;;;5.82;3.88;;;;;;;14.40;59.04;98408.31;4975773;28;20035;-83
2023/01/02 11:20:33;;;;;;;5.78;3.22;;;;;;;14.37;58.41;98403.47;4973527;28;20046;-82
2023/01/02 11:23:02;;;;;;;5.35;3.20;;;;;;;14.28;58.12;98400.28;4977442;28;20046;-82
2023/01/02 11:25:39;;;;;;;9.15;4.05;;;;;;;14.48;59.04;98400.16;4981124;28;20512;-82
2023/01/02 11:28:12;;;;;;;4.00;3.03;;;;;;;14.67;57.94;98399.16;4974994;28;20390;-82
2023/01/02 11:30:49;;;;;;;6.18;3.40;;;;;;;14.78;58.00;98402.09;4980600;28;20035;-82
2023/01/02 11:33:23;;;;;;;6.00;3.70;;;;;;;14.90;56.83;98410.91;4976465;28;20117;-82
2023/01/02 11:36:03;;;;;;;5.03;3.28;;;;;;;14.96;57.40;98407.38;4981128;28;20030;-83
2023/01/02 11:38:49;;;;;;;6.85;3.70;;;;;;;14.99;58.19;98405.13;4980281;28;20049;-82
2023/01/02 11:44:53;;;;;;;5.55;3.35;;;;;;;15.02;56.93;98411.78;4974966;28;20035;-83
2023/01/02 11:47:34;;;;;;;6.07;3.22;;;;;;;15.32;56.99;98406.56;4978762;28;20038;-83
2023/01/02 11:50:02;;;;;;;5.75;3.30;;;;;;;15.55;56.17;98410.34;4975315;28;20094;-80
2023/01/02 11:52:44;;;;;;;4.40;3.50;;;;;;;15.74;55.90;98420.69;4977562;28;20058;-80
2023/01/02 11:55:38;;;;;;;4.38;3.20;;;;;;;15.85;54.46;98420.94;4961326;28;20023;-82
2023/01/02 11:58:18;;;;;;;5.60;3.15;;;;;;;16.00;55.59;98408.91;4977895;28;20448;-82
2023/01/02 12:00:50;;;;;;;5.15;3.83;;;;;;;16.07;56.44;98395.56;4974700;28;20039;-82